Time;durP1;ratioP1;P1;durP2;ratioP2;P2;SDS_P1;SDS_P2;PMS_P1;PMS_P2;Temp;Humidity;BMP_temperature;BMP_pressure;BME280_temperature;BME280_humidity;BME280_pressure;Samples;Min_cycle;Max_cycle;Signal;HPM_P1;HPM_P2
2022/10/24 00:00:43;;;;;;;24.10;12.35;;;;;;;18.23;65.04;98946.91;4503736;31;20135;-84
2022/10/24 00:03:09;;;;;;;24.42;13.88;;;;;;;17.95;65.94;98952.84;4476231;31;20084;-84
2022/10/24 00:05:34;;;;;;;21.37;11.95;;;;;;;18.13;65.33;98955.78;4503601;31;20114;-84
2022/10/24 00:08:00;;;;;;;22.42;12.65;;;;;;;18.16;65.12;98945.72;4489083;31;20447;-84
2022/10/24 00:10:25;;;;;;;23.92;13.57;;;;;;;18.16;65.16;98947.56;4503548;31;20123;-85
2022/10/24 00:12:52;;;;;;;24.05;13.07;;;;;;;18.17;65.08;98943.91;4476135;31;20083;-84
2022/10/24 00:15:18;;;;;;;26.23;14.55;;;;;;;18.18;65.09;98948.28;4489100;31;20111;-84
2022/10/24 00:17:43;;;;;;;25.12;13.90;;;;;;;18.19;65.04;98948.13;4476051;31;20100;-84
2022/10/24 00:20:09;;;;;;;25.52;13.07;;;;;;;18.20;64.99;98947.16;4503522;31;20096;-84
2022/10/24 00:22:35;;;;;;;26.00;13.98;;;;;;;18.20;64.99;98949.81;4503546;31;20150;-84
2022/10/24 00:25:00;;;;;;;24.23;13.30;;;;;;;18.21;65.00;98948.00;4503442;31;20096;-84
2022/10/24 00:27:26;;;;;;;25.62;13.70;;;;;;;18.30;64.69;98944.56;4476097;31;20100;-84
2022/10/24 00:29:52;;;;;;;23.73;13.50;;;;;;;18.27;64.71;98943.00;4503754;31;20138;-84
2022/10/24 00:32:17;;;;;;;25.77;13.77;;;;;;;18.25;64.79;98946.75;4489199;31;20364;-84
2022/10/24 00:34:42;;;;;;;24.77;14.07;;;;;;;18.25;64.77;98950.31;4489254;31;20092;-84
2022/10/24 00:37:08;;;;;;;26.40;13.57;;;;;;;18.23;64.71;98951.38;4488945;31;20142;-84
2022/10/24 00:39:33;;;;;;;24.23;13.02;;;;;;;18.19;64.82;98948.13;4503404;31;20114;-84
2022/10/24 00:41:59;;;;;;;25.62;12.90;;;;;;;18.27;64.56;98944.81;4503370;31;20459;-84
2022/10/24 00:44:27;;;;;;;23.87;13.27;;;;;;;18.28;64.41;98946.53;4488706;31;20091;-84
2022/10/24 00:46:55;;;;;;;24.70;13.20;;;;;;;18.21;64.62;98935.50;4488941;31;20608;-84
2022/10/24 00:49:25;;;;;;;26.73;13.85;;;;;;;18.18;64.61;98938.44;4503491;31;20114;-84
2022/10/24 00:51:57;;;;;;;24.92;13.57;;;;;;;18.17;64.73;98939.41;4488899;31;20156;-84
2022/10/24 00:54:22;;;;;;;27.05;14.32;;;;;;;18.13;64.83;98937.97;4489379;31;20088;-85
2022/10/24 00:57:07;;;;;;;24.23;13.38;;;;;;;18.14;64.78;98931.69;4475666;31;20459;-85
2022/10/24 00:59:35;;;;;;;23.08;13.00;;;;;;;18.14;64.81;98930.81;4503317;31;20091;-84
2022/10/24 01:02:00;;;;;;;26.73;14.48;;;;;;;18.17;64.41;98925.22;4488945;31;20463;-85
2022/10/24 01:04:26;;;;;;;25.58;13.70;;;;;;;18.17;64.48;98934.06;4475913;31;20100;-84
2022/10/24 01:06:54;;;;;;;25.45;14.55;;;;;;;18.04;64.79;98931.59;4503167;31;20104;-84
2022/10/24 01:09:44;;;;;;;24.12;13.07;;;;;;;18.04;64.79;98928.06;4503080;31;20100;-84
2022/10/24 01:12:22;;;;;;;21.87;12.40;;;;;;;17.96;64.98;98928.72;4503168;31;20157;-84
2022/10/24 01:15:20;;;;;;;24.23;13.68;;;;;;;17.99;64.98;98927.63;4488937;31;20084;-84
2022/10/24 01:17:56;;;;;;;23.73;13.80;;;;;;;18.00;64.89;98918.63;4488937;31;20099;-84
2022/10/24 01:20:39;;;;;;;23.27;12.35;;;;;;;17.97;64.92;98926.91;4488864;31;20087;-84
2022/10/24 01:23:11;;;;;;;22.48;12.63;;;;;;;17.98;64.90;98917.91;4488873;31;20364;-83
2022/10/24 01:25:49;;;;;;;26.90;13.62;;;;;;;17.94;64.97;98924.47;4502955;31;20123;-82
2022/10/24 01:28:18;;;;;;;23.83;12.82;;;;;;;17.96;64.87;98926.03;4488644;31;20179;-83
2022/10/24 01:30:54;;;;;;;25.70;14.43;;;;;;;17.93;64.85;98926.31;4488646;31;20115;-83
2022/10/24 01:33:31;;;;;;;24.33;13.15;;;;;;;17.96;64.82;98939.38;4488783;31;20088;-83
2022/10/24 01:36:09;;;;;;;25.95;13.88;;;;;;;18.00;64.55;98935.50;4488844;31;20085;-83
2022/10/24 01:38:39;;;;;;;24.50;13.25;;;;;;;18.01;64.53;98926.50;4488621;31;20092;-82
2022/10/24 01:41:20;;;;;;;26.80;13.68;;;;;;;17.95;64.72;98924.38;4488699;31;20104;-82
2022/10/24 01:44:13;;;;;;;27.17;12.95;;;;;;;17.86;64.92;98925.13;4488626;31;20084;-82
2022/10/24 01:46:42;;;;;;;25.92;13.35;;;;;;;17.88;64.86;98918.69;4502179;31;20423;-82
2022/10/24 01:49:12;;;;;;;24.73;13.27;;;;;;;17.91;64.68;98912.28;4482329;32;20116;-83
2022/10/24 01:51:38;;;;;;;26.40;13.62;;;;;;;17.94;64.62;98911.16;4472403;32;20138;-83
2022/10/24 01:54:04;;;;;;;24.60;13.45;;;;;;;17.86;64.79;98915.28;4472903;32;20502;-83
2022/10/24 01:56:30;;;;;;;27.92;14.35;;;;;;;17.92;64.65;98921.09;4472789;32;20092;-83
2022/10/24 01:59:28;;;;;;;26.55;13.70;;;;;;;17.96;64.60;98922.53;4487049;32;20092;-83
2022/10/24 02:02:19;;;;;;;25.10;13.35;;;;;;;17.99;64.46;98922.28;4486896;32;20097;-83
2022/10/24 02:04:53;;;;;;;26.62;13.70;;;;;;;17.98;64.43;98921.47;4459716;32;20100;-83
2022/10/24 02:07:20;;;;;;;25.58;12.98;;;;;;;17.98;64.37;98920.59;4486900;32;20088;-82
2022/10/24 02:09:49;;;;;;;26.90;14.65;;;;;;;17.96;64.32;98911.87;4459590;32;20165;-82
2022/10/24 02:12:16;;;;;;;26.60;13.52;;;;;;;17.99;64.15;98903.63;4472700;32;20109;-83
2022/10/24 02:14:48;;;;;;;27.42;13.57;;;;;;;17.92;64.37;98900.62;4472631;32;20499;-83
2022/10/24 02:17:15;;;;;;;27.40;13.45;;;;;;;17.90;64.44;98893.75;4459559;32;20084;-83
2022/10/24 02:19:41;;;;;;;26.10;13.13;;;;;;;17.92;64.32;98894.44;4472621;32;20135;-83
2022/10/24 02:22:35;;;;;;;26.48;13.68;;;;;;;17.90;64.41;98893.75;4472465;32;20153;-82
2022/10/24 02:25:09;;;;;;;24.48;13.25;;;;;;;17.86;64.45;98890.47;4472849;32;20119;-83
2022/10/24 02:27:38;;;;;;;24.10;13.25;;;;;;;17.89;64.43;98890.22;4472511;32;20410;-83
2022/10/24 02:30:10;;;;;;;26.70;13.50;;;;;;;17.87;64.46;98886.84;4486766;32;20147;-83
2022/10/24 02:32:42;;;;;;;25.10;13.00;;;;;;;17.88;64.48;98884.03;4486666;32;20093;-85
2022/10/24 02:35:09;;;;;;;25.70;13.50;;;;;;;17.78;64.69;98887.56;4472574;32;20159;-84
2022/10/24 02:37:39;;;;;;;26.02;13.75;;;;;;;17.84;64.56;98890.59;4472558;32;20110;-84
2022/10/24 02:40:06;;;;;;;25.30;12.27;;;;;;;17.80;64.65;98888.28;4472411;32;20135;-84
2022/10/24 02:42:33;;;;;;;24.08;12.65;;;;;;;17.83;64.57;98899.56;4486581;32;20130;-84
2022/10/24 02:44:58;;;;;;;23.45;12.93;;;;;;;17.81;64.69;98889.97;4472352;32;20209;-84
2022/10/24 02:47:25;;;;;;;25.60;13.07;;;;;;;17.86;64.46;98885.97;4472198;32;20092;-84
2022/10/24 02:49:50;;;;;;;27.60;12.93;;;;;;;17.83;64.56;98878.22;4472209;32;20169;-84
2022/10/24 02:52:19;;;;;;;25.02;12.85;;;;;;;17.90;64.44;98891.06;4486465;32;20131;-84
2022/10/24 02:54:45;;;;;;;26.45;13.30;;;;;;;17.86;64.39;98896.66;4472213;32;20456;-82
2022/10/24 02:57:12;;;;;;;25.12;13.73;;;;;;;17.84;64.46;98903.09;4486420;32;20096;-83
2022/10/24 02:59:37;;;;;;;24.15;12.68;;;;;;;17.86;64.45;98893.13;4472216;32;20108;-83
2022/10/24 03:02:03;;;;;;;26.42;13.52;;;;;;;17.88;64.39;98884.03;4488208;32;20149;-83
2022/10/24 03:04:28;;;;;;;24.27;13.52;;;;;;;17.85;64.41;98878.97;4488284;32;20099;-84
2022/10/24 03:06:54;;;;;;;26.65;14.02;;;;;;;17.89;64.24;98874.25;4473943;32;20084;-84
2022/10/24 03:09:19;;;;;;;25.83;13.55;;;;;;;17.83;64.43;98872.91;4487929;32;20169;-84
2022/10/24 03:11:44;;;;;;;26.15;13.35;;;;;;;17.81;64.46;98872.19;4488283;32;20100;-84
2022/10/24 03:14:10;;;;;;;25.42;13.45;;;;;;;17.84;64.47;98871.94;4488178;32;20084;-85
2022/10/24 03:16:35;;;;;;;28.08;14.35;;;;;;;17.82;64.37;98865.87;4473737;32;20128;-86
2022/10/24 03:19:01;;;;;;;25.73;13.95;;;;;;;17.68;64.79;98871.50;4488103;32;20439;-84
2022/10/24 03:21:26;;;;;;;25.15;13.73;;;;;;;17.74;64.62;98880.81;4473750;32;20127;-85
2022/10/24 03:23:52;;;;;;;25.88;13.82;;;;;;;17.65;64.87;98871.75;4488020;32;20088;-86
2022/10/24 03:26:17;;;;;;;26.08;13.52;;;;;;;17.64;64.81;98862.91;4473727;32;20133;-85
2022/10/24 03:28:42;;;;;;;23.95;13.27;;;;;;;17.68;64.81;98855.53;4487923;32;20382;-85
2022/10/24 03:31:08;;;;;;;23.70;13.73;;;;;;;17.72;64.75;98851.63;4488137;32;20089;-83
2022/10/24 03:33:33;;;;;;;28.85;13.38;;;;;;;17.72;64.79;98848.97;4488040;32;20092;-84
2022/10/24 03:35:59;;;;;;;24.63;12.82;;;;;;;17.65;64.74;98850.44;4487960;32;20420;-84
2022/10/24 03:38:24;;;;;;;23.62;13.77;;;;;;;17.73;64.61;98868.44;4473735;32;20112;-86
2022/10/24 03:40:50;;;;;;;25.80;14.68;;;;;;;17.42;65.66;98857.66;4487823;32;20136;-85
2022/10/24 03:43:16;;;;;;;25.50;14.07;;;;;;;17.58;65.08;98860.75;4488080;32;20413;-85
2022/10/24 03:45:42;;;;;;;24.70;13.55;;;;;;;17.67;64.84;98860.00;4487991;32;20087;-86
2022/10/24 03:48:07;;;;;;;24.55;13.07;;;;;;;17.66;64.73;98868.97;4487695;32;20104;-86
2022/10/24 03:50:33;;;;;;;26.98;14.02;;;;;;;17.66;64.73;98866.28;4473649;32;20404;-86
2022/10/24 03:52:59;;;;;;;25.52;14.18;;;;;;;17.67;64.65;98859.13;4473573;32;20114;-87
2022/10/24 03:55:24;;;;;;;24.70;13.43;;;;;;;17.66;64.57;98865.47;4473757;32;20409;-87
2022/10/24 03:57:50;;;;;;;25.95;14.13;;;;;;;17.63;64.69;98863.03;4473943;32;20148;-87
2022/10/24 04:00:17;;;;;;;24.27;13.43;;;;;;;17.62;64.72;98864.03;4473698;32;20205;-87
2022/10/24 04:02:43;;;;;;;25.65;13.13;;;;;;;17.65;64.62;98872.63;4487845;32;20097;-87
2022/10/24 04:05:08;;;;;;;24.17;13.27;;;;;;;17.68;64.56;98868.84;4460357;32;20092;-86
2022/10/24 04:07:34;;;;;;;24.70;13.68;;;;;;;17.63;64.50;98877.19;4487746;32;20120;-87
2022/10/24 04:09:59;;;;;;;24.73;14.15;;;;;;;17.68;64.46;98885.66;4487570;32;20146;-86
2022/10/24 04:12:25;;;;;;;27.85;14.50;;;;;;;17.72;64.22;98883.59;4473189;32;20110;-86
2022/10/24 04:14:50;;;;;;;26.83;14.48;;;;;;;17.66;64.37;98873.44;4487690;32;20108;-87
2022/10/24 04:17:15;;;;;;;27.73;14.48;;;;;;;17.65;64.33;98877.94;4487599;32;20423;-87
2022/10/24 04:19:41;;;;;;;28.55;14.23;;;;;;;17.64;64.40;98880.72;4487848;32;20114;-87
2022/10/24 04:22:07;;;;;;;27.85;14.38;;;;;;;17.65;64.38;98879.75;4473325;32;20096;-87
2022/10/24 04:24:32;;;;;;;29.63;14.87;;;;;;;17.58;64.50;98889.22;4487517;32;20111;-87
2022/10/24 04:26:58;;;;;;;25.62;14.30;;;;;;;17.69;64.18;98883.84;4460309;32;20139;-87
2022/10/24 04:29:23;;;;;;;28.17;14.70;;;;;;;17.64;64.14;98876.25;4473445;32;20428;-87
2022/10/24 04:31:49;;;;;;;29.90;15.35;;;;;;;17.64;64.28;98875.41;4473224;32;20143;-87
2022/10/24 04:34:14;;;;;;;27.77;14.98;;;;;;;17.47;64.55;98885.59;4487553;32;20134;-87
2022/10/24 04:36:39;;;;;;;27.70;15.48;;;;;;;17.52;64.47;98869.25;4460199;32;20143;-83
2022/10/24 04:39:05;;;;;;;29.77;15.32;;;;;;;17.46;64.59;98870.63;4487425;32;20089;-83
2022/10/24 04:41:31;;;;;;;32.17;15.02;;;;;;;17.51;64.51;98870.22;4487535;32;20088;-83
2022/10/24 04:43:56;;;;;;;30.67;16.73;;;;;;;17.53;64.45;98865.63;4472992;32;20440;-84
2022/10/24 04:46:22;;;;;;;31.48;16.05;;;;;;;17.44;64.64;98867.22;4487294;32;20151;-83
2022/10/24 04:48:47;;;;;;;29.73;16.12;;;;;;;17.16;65.18;98865.94;4487565;32;20466;-83
2022/10/24 04:51:13;;;;;;;32.47;16.48;;;;;;;17.48;64.59;98867.78;4487585;32;20096;-82
2022/10/24 04:53:38;;;;;;;31.40;16.85;;;;;;;17.47;64.38;98858.97;4487403;32;20088;-84
2022/10/24 04:56:04;;;;;;;33.63;17.27;;;;;;;17.44;64.50;98856.56;4460090;32;20127;-84
2022/10/24 04:58:32;;;;;;;33.10;16.65;;;;;;;17.44;64.58;98851.25;4487442;32;20111;-83
2022/10/24 05:00:57;;;;;;;31.62;16.52;;;;;;;17.43;64.48;98854.88;4487500;32;20757;-83
2022/10/24 05:03:22;;;;;;;32.28;16.37;;;;;;;17.47;64.44;98853.62;4473136;32;20096;-83
2022/10/24 05:05:51;;;;;;;32.33;16.60;;;;;;;17.48;64.45;98849.16;4459967;32;20112;-82
2022/10/24 05:08:17;;;;;;;33.05;17.10;;;;;;;17.46;64.38;98851.09;4473112;32;20167;-82
2022/10/24 05:10:42;;;;;;;33.72;17.15;;;;;;;17.48;64.25;98854.47;4487255;32;20114;-82
2022/10/24 05:13:08;;;;;;;33.33;16.48;;;;;;;17.41;64.21;98850.66;4487366;32;20122;-84
2022/10/24 05:15:34;;;;;;;36.55;17.70;;;;;;;17.40;64.05;98862.25;4472985;32;20161;-84
2022/10/24 05:18:02;;;;;;;35.72;17.90;;;;;;;17.40;64.01;98872.91;4487349;32;20352;-84
2022/10/24 05:20:27;;;;;;;31.87;17.12;;;;;;;17.36;64.08;98874.97;4472141;32;20111;-84
2022/10/24 05:22:53;;;;;;;34.58;18.15;;;;;;;17.41;64.03;98893.25;4472293;32;20085;-82
2022/10/24 05:25:18;;;;;;;34.00;17.83;;;;;;;17.35;64.06;98894.59;4487288;32;20092;-82
2022/10/24 05:27:44;;;;;;;33.45;17.10;;;;;;;17.45;63.77;98905.34;4487172;32;20469;-82
2022/10/24 05:30:10;;;;;;;34.10;17.25;;;;;;;17.45;63.81;98898.19;4472896;32;20114;-83
2022/10/24 05:32:36;;;;;;;33.65;17.00;;;;;;;17.44;63.76;98900.97;4459908;32;20436;-85
2022/10/24 05:35:01;;;;;;;34.58;18.30;;;;;;;17.44;63.71;98888.53;4487202;32;20096;-84
2022/10/24 05:37:26;;;;;;;36.42;18.08;;;;;;;17.43;63.79;98888.66;4487256;32;20440;-85
2022/10/24 05:39:52;;;;;;;36.95;18.40;;;;;;;17.44;63.80;98893.00;4487217;32;20104;-85
2022/10/24 05:42:17;;;;;;;36.05;19.17;;;;;;;17.43;63.71;98897.47;4486985;32;20100;-84
2022/10/24 05:44:43;;;;;;;34.88;17.30;;;;;;;17.45;63.69;98900.03;4472852;32;20088;-84
2022/10/24 05:47:08;;;;;;;39.97;18.27;;;;;;;17.50;63.50;98903.19;4472816;32;20118;-84
2022/10/24 05:49:33;;;;;;;37.08;18.02;;;;;;;17.52;63.51;98903.03;4472753;32;20088;-84
2022/10/24 05:51:59;;;;;;;35.80;17.20;;;;;;;17.52;63.47;98909.22;4486971;32;20329;-84
2022/10/24 05:54:24;;;;;;;34.60;17.70;;;;;;;17.59;63.27;98918.37;4487009;32;20474;-84
2022/10/24 05:56:52;;;;;;;41.25;18.52;;;;;;;17.56;63.18;98921.31;4487044;32;20118;-84
2022/10/24 05:59:17;;;;;;;38.10;19.33;;;;;;;17.53;63.19;98918.87;4473116;32;20183;-84
2022/10/24 06:01:43;;;;;;;40.65;19.62;;;;;;;17.55;63.18;98918.78;4486876;32;20119;-84
2022/10/24 06:04:09;;;;;;;38.25;18.12;;;;;;;17.55;63.12;98914.28;4467797;32;161720;-84
2022/10/24 06:06:44;;;;;;;37.75;18.23;;;;;;;17.59;62.93;98925.53;4486965;32;20076;-84
2022/10/24 06:09:11;;;;;;;38.42;19.23;;;;;;;17.21;63.66;98938.31;4472842;32;20114;-86
2022/10/24 06:11:36;;;;;;;38.53;19.35;;;;;;;17.39;63.39;98935.16;4476238;31;20096;-83
2022/10/24 06:14:02;;;;;;;39.38;18.87;;;;;;;17.43;63.31;98937.44;4481113;31;20105;-83
2022/10/24 06:16:29;;;;;;;49.03;21.50;;;;;;;17.38;63.33;98928.13;4479618;31;20115;-85
2022/10/24 06:18:55;;;;;;;42.92;19.83;;;;;;;16.95;64.82;98942.19;4494874;31;20144;-84
2022/10/24 06:21:21;;;;;;;45.50;20.37;;;;;;;16.96;64.57;98938.53;4490759;31;20163;-83
2022/10/24 06:23:47;;;;;;;44.13;20.62;;;;;;;17.10;64.17;98936.50;4486715;31;20105;-85
2022/10/24 06:26:13;;;;;;;44.63;20.98;;;;;;;17.18;63.92;98935.03;4485676;31;20079;-83
2022/10/24 06:28:39;;;;;;;44.25;20.55;;;;;;;16.65;65.49;98931.12;4486765;31;20107;-84
2022/10/24 06:31:09;;;;;;;42.00;21.10;;;;;;;16.36;66.91;98935.16;4486641;31;20088;-88
2022/10/24 06:33:35;;;;;;;42.97;19.95;;;;;;;16.54;66.25;98933.75;4485408;32;20116;-87
2022/10/24 06:36:03;;;;;;;42.62;19.58;;;;;;;16.51;66.13;98932.19;4485813;32;20084;-79
2022/10/24 06:38:29;;;;;;;40.45;19.50;;;;;;;16.34;67.10;98937.09;4486629;31;20096;-82
2022/10/24 06:40:54;;;;;;;42.90;20.05;;;;;;;16.70;65.88;98926.28;4486639;32;20424;-82
2022/10/24 06:43:19;;;;;;;40.80;19.62;;;;;;;16.69;65.96;98935.25;4486681;31;20424;-82
2022/10/24 06:45:45;;;;;;;47.08;20.52;;;;;;;16.55;66.22;98922.12;4486607;32;20110;-80
2022/10/24 06:48:10;;;;;;;43.60;20.50;;;;;;;16.54;66.58;98930.25;4485324;32;20084;-81
2022/10/24 06:50:39;;;;;;;43.55;20.67;;;;;;;15.81;69.24;98932.19;4485377;32;20154;-82
2022/10/24 06:53:07;;;;;;;47.72;21.12;;;;;;;16.36;67.33;98920.06;4472499;32;20104;-82
2022/10/24 06:55:33;;;;;;;48.87;22.20;;;;;;;16.71;66.07;98912.03;4486593;31;20096;-81
2022/10/24 06:57:59;;;;;;;49.35;21.95;;;;;;;16.64;66.06;98916.13;4486423;32;20111;-82
2022/10/24 07:00:25;;;;;;;54.80;23.05;;;;;;;16.29;67.17;98917.00;4486456;31;20088;-81
2022/10/24 07:02:50;;;;;;;50.75;22.80;;;;;;;16.51;66.63;98916.25;4486324;31;20153;-82
2022/10/24 07:05:16;;;;;;;48.90;23.08;;;;;;;16.71;66.00;98920.00;4466707;32;20100;-81
2022/10/24 07:07:47;;;;;;;51.03;21.92;;;;;;;16.78;65.92;98920.34;4480601;31;20131;-81
2022/10/24 07:10:13;;;;;;;53.97;22.25;;;;;;;16.71;66.24;98919.16;4487819;31;20084;-85
2022/10/24 07:12:39;;;;;;;50.15;21.25;;;;;;;16.89;65.62;98914.25;4486271;31;20469;-91
2022/10/24 07:15:05;;;;;;;48.30;20.12;;;;;;;17.01;65.28;98925.72;4486079;31;20088;-90
2022/10/24 07:17:30;;;;;;;53.92;22.10;;;;;;;16.86;65.78;98938.41;4486149;31;20084;-86
2022/10/24 07:19:56;;;;;;;48.47;20.17;;;;;;;16.99;65.23;98940.97;4484282;32;20530;-85
2022/10/24 07:22:22;;;;;;;46.80;20.62;;;;;;;16.89;65.50;98946.16;4484554;31;20176;-86
2022/10/24 07:24:52;;;;;;;52.65;21.27;;;;;;;16.89;65.68;98956.81;4484737;32;20112;-86
2022/10/24 07:27:18;;;;;;;57.53;22.42;;;;;;;16.73;66.23;98966.91;4485841;31;20300;-85
2022/10/24 07:29:44;;;;;;;48.92;21.17;;;;;;;16.84;65.96;98967.81;4471556;32;20084;-86
2022/10/24 07:32:09;;;;;;;56.25;21.90;;;;;;;15.92;69.64;98982.72;4485856;32;20096;-85
2022/10/24 07:34:35;;;;;;;59.63;21.10;;;;;;;16.29;68.38;98975.50;4485888;31;20111;-85
2022/10/24 07:37:03;;;;;;;54.50;22.73;;;;;;;15.81;70.70;98972.87;4485844;32;20111;-85
2022/10/24 07:39:28;;;;;;;;;;;;;;;15.82;70.96;98961.28;4485101;32;20156;-85
2022/10/24 07:41:53;;;;;;;128.43;23.98;;;;;;;16.05;70.12;98953.41;4485996;32;19972;-86
2022/10/24 07:44:19;;;;;;;191.80;27.52;;;;;;;15.53;72.35;98950.13;4484828;32;20105;-85
2022/10/24 07:46:44;;;;;;;61.33;21.98;;;;;;;15.79;71.51;98958.84;4487107;31;20416;-85
2022/10/24 07:49:09;;;;;;;80.00;22.92;;;;;;;16.22;69.68;98950.34;4487986;31;20106;-86
2022/10/24 07:51:35;;;;;;;119.18;24.42;;;;;;;15.67;71.41;98957.91;4488199;31;20440;-85
2022/10/24 07:54:01;;;;;;;107.55;22.90;;;;;;;15.62;72.39;98959.19;4487039;32;20172;-85
2022/10/24 07:56:26;;;;;;;99.57;23.98;;;;;;;15.91;70.95;98957.09;4488108;32;20167;-85
2022/10/24 07:58:52;;;;;;;76.10;23.58;;;;;;;16.09;70.10;98961.06;4486736;32;20472;-85
2022/10/24 08:01:20;;;;;;;124.20;23.40;;;;;;;16.07;70.02;98957.66;4486701;32;20112;-85
2022/10/24 08:03:45;;;;;;;;;;;;;;;15.85;70.73;98961.03;4487105;32;20112;-85
2022/10/24 08:06:16;;;;;;;210.32;26.58;;;;;;;15.67;71.95;98973.84;4488022;32;20002;-85
2022/10/24 08:08:42;;;;;;;217.37;27.02;;;;;;;15.77;71.61;98955.47;4487692;31;20145;-86
2022/10/24 08:11:09;;;;;;;306.98;29.42;;;;;;;16.09;70.17;98962.88;4487917;31;20443;-86
2022/10/24 08:13:35;;;;;;;133.43;23.85;;;;;;;15.81;71.12;98964.91;4486780;32;20123;-86
2022/10/24 08:16:01;;;;;;;118.22;21.65;;;;;;;15.66;71.76;98965.97;4487714;31;20163;-86
2022/10/24 08:18:27;;;;;;;237.63;27.62;;;;;;;15.88;70.95;98950.22;4486601;32;20102;-85
2022/10/24 08:20:57;;;;;;;55.03;21.45;;;;;;;15.89;70.63;98948.41;4486529;32;20104;-85
2022/10/24 08:23:22;;;;;;;316.17;28.17;;;;;;;15.88;71.17;98944.06;4486543;32;20168;-86
2022/10/24 08:25:48;;;;;;;69.15;20.90;;;;;;;16.01;70.45;98947.50;4487733;31;20080;-85
2022/10/24 08:28:16;;;;;;;139.90;22.67;;;;;;;16.21;69.71;98945.16;4487553;32;20137;-85
2022/10/24 08:30:42;;;;;;;46.53;18.80;;;;;;;16.29;69.68;98948.91;4487660;31;20084;-85
2022/10/24 08:33:07;;;;;;;42.72;19.45;;;;;;;16.32;69.33;98942.50;4487327;32;20118;-85
2022/10/24 08:35:33;;;;;;;42.58;19.77;;;;;;;16.54;68.95;98931.09;4487595;31;20068;-85
2022/10/24 08:38:00;;;;;;;45.20;19.73;;;;;;;16.55;68.75;98934.59;4487592;31;20459;-85
2022/10/24 08:40:26;;;;;;;43.85;18.77;;;;;;;16.76;68.46;98926.78;4487753;31;20080;-85
2022/10/24 08:42:51;;;;;;;43.70;19.37;;;;;;;16.85;67.97;98926.94;4473254;32;20108;-85
2022/10/24 08:45:38;;;;;;;48.97;19.52;;;;;;;16.94;67.46;98924.50;4487614;31;20137;-86
2022/10/24 08:48:10;;;;;;;59.20;20.17;;;;;;;16.61;68.07;98921.69;4486355;32;20080;-86
2022/10/24 08:50:41;;;;;;;48.17;20.23;;;;;;;16.42;68.72;98916.09;4486347;32;20156;-85
2022/10/24 08:53:11;;;;;;;39.78;18.65;;;;;;;16.79;67.52;98908.75;4486467;32;20115;-86
2022/10/24 08:55:52;;;;;;;39.38;18.40;;;;;;;17.06;67.09;98908.44;4486414;32;20118;-85
2022/10/24 08:58:36;;;;;;;40.67;19.00;;;;;;;17.24;66.64;98900.78;4485241;32;20072;-85
2022/10/24 09:01:06;;;;;;;39.70;18.10;;;;;;;17.41;66.08;98891.44;4487379;31;20092;-85
2022/10/24 09:03:45;;;;;;;55.12;19.67;;;;;;;17.49;65.88;98886.31;4486309;32;20092;-86
2022/10/24 09:06:19;;;;;;;98.45;22.58;;;;;;;17.55;65.33;98894.78;4486376;32;20100;-85
2022/10/24 09:08:57;;;;;;;121.35;22.92;;;;;;;17.38;65.44;98912.97;4485982;32;20107;-86
2022/10/24 09:11:25;;;;;;;70.85;20.42;;;;;;;17.20;65.92;98917.97;4486205;32;20122;-86
2022/10/24 09:13:51;;;;;;;43.87;19.40;;;;;;;17.12;65.77;98920.41;4487398;32;20088;-85
2022/10/24 09:16:20;;;;;;;43.13;18.92;;;;;;;17.26;65.33;98914.81;4486214;32;20180;-85
2022/10/24 09:18:46;;;;;;;44.03;19.92;;;;;;;17.42;65.27;98910.91;4487443;31;20081;-85
2022/10/24 09:21:13;;;;;;;45.67;20.80;;;;;;;17.51;65.15;98907.50;4486086;32;20200;-85
2022/10/24 09:23:39;;;;;;;43.58;18.90;;;;;;;17.56;65.20;98913.31;4486147;32;20119;-85
2022/10/24 09:26:12;;;;;;;45.17;20.02;;;;;;;17.63;65.05;98911.81;4487326;31;20489;-85
2022/10/24 09:28:38;;;;;;;57.25;20.10;;;;;;;17.64;64.95;98910.03;4486108;32;20084;-85
2022/10/24 09:31:20;;;;;;;68.15;21.05;;;;;;;17.34;65.51;98913.34;4486099;32;20096;-86
2022/10/24 09:33:48;;;;;;;56.03;20.42;;;;;;;17.09;66.15;98925.97;4472921;32;20104;-85
2022/10/24 09:36:16;;;;;;;74.47;19.95;;;;;;;17.33;65.47;98928.50;4486066;32;20371;-84
2022/10/24 09:38:42;;;;;;;49.00;20.65;;;;;;;16.73;67.07;98929.66;4487110;31;20090;-83
2022/10/24 09:41:26;;;;;;;48.50;21.10;;;;;;;17.07;66.61;98930.56;4487169;32;20435;-86
2022/10/24 09:43:57;;;;;;;52.90;20.30;;;;;;;17.30;66.05;98937.56;4486000;32;20096;-89
2022/10/24 09:46:29;;;;;;;59.35;21.60;;;;;;;17.14;66.77;98945.09;4472765;32;20498;-86
2022/10/24 09:49:04;;;;;;;46.90;20.95;;;;;;;17.35;65.86;98949.69;4485827;32;20085;-87
2022/10/24 09:51:40;;;;;;;47.90;21.23;;;;;;;17.49;65.40;98946.75;4487171;32;20092;-89
2022/10/24 09:54:24;;;;;;;54.10;21.33;;;;;;;16.68;68.37;98951.31;4472973;32;20101;-86
2022/10/24 09:56:57;;;;;;;44.08;19.87;;;;;;;17.15;66.54;98949.44;4487140;31;20500;-90
2022/10/24 09:59:44;;;;;;;52.92;22.40;;;;;;;16.93;67.12;98952.09;4485945;32;20500;-90
2022/10/24 10:02:09;;;;;;;43.28;20.55;;;;;;;17.04;66.88;98941.47;4485654;32;20091;-88
2022/10/24 10:04:41;;;;;;;46.92;20.80;;;;;;;17.13;66.55;98929.22;4487028;31;20106;-89
2022/10/24 10:07:19;;;;;;;50.85;21.23;;;;;;;17.24;66.23;98939.88;4485904;32;20080;-86
2022/10/24 10:09:53;;;;;;;52.97;21.73;;;;;;;17.26;65.95;98935.28;4485191;32;20149;-89
2022/10/24 10:12:31;;;;;;;44.53;20.35;;;;;;;17.19;66.27;98929.59;4485931;32;20148;-90
2022/10/24 10:14:57;;;;;;;45.30;20.13;;;;;;;17.07;67.09;98938.53;4486964;31;20115;-90
2022/10/24 10:17:26;;;;;;;47.45;20.65;;;;;;;17.20;66.53;98925.13;4485830;32;20194;-91
2022/10/24 10:19:53;;;;;;;49.05;19.90;;;;;;;16.85;67.98;98926.94;4486936;31;20444;-89
2022/10/24 10:22:30;;;;;;;46.40;20.10;;;;;;;16.90;67.31;98923.91;4485634;32;20152;-88
2022/10/24 10:24:57;;;;;;;46.53;19.25;;;;;;;17.29;66.83;98919.06;4487085;31;20088;-88
2022/10/24 10:27:31;;;;;;;42.28;18.12;;;;;;;17.38;66.27;98904.97;4485346;32;20155;-88
2022/10/24 10:30:10;;;;;;;42.90;20.60;;;;;;;17.53;65.77;98916.22;4486632;31;20164;-87
2022/10/24 10:33:13;;;;;;;42.15;18.15;;;;;;;17.64;65.49;98923.34;4486343;31;20168;-86
2022/10/24 10:35:57;;;;;;;41.25;17.95;;;;;;;17.68;65.25;98911.47;4499337;31;20117;-86
2022/10/24 10:38:51;;;;;;;42.50;17.75;;;;;;;17.73;64.42;98909.28;4502919;31;20140;-86
2022/10/24 10:41:38;;;;;;;38.50;17.33;;;;;;;17.49;65.40;98904.13;4488251;31;20110;-85
2022/10/24 10:44:23;;;;;;;40.53;19.42;;;;;;;17.65;65.31;98907.25;4502418;31;20084;-87
2022/10/24 10:47:12;;;;;;;43.50;18.70;;;;;;;17.81;64.81;98905.97;4502384;31;20092;-81
2022/10/24 10:49:39;;;;;;;39.42;17.65;;;;;;;17.90;64.49;98904.41;4502356;31;20578;-87
2022/10/24 10:52:06;;;;;;;40.60;18.12;;;;;;;17.91;64.14;98906.09;4488336;31;20088;-86
2022/10/24 10:54:49;;;;;;;37.47;17.42;;;;;;;17.76;64.49;98895.69;4502201;31;20100;-86
2022/10/24 10:57:27;;;;;;;38.65;18.17;;;;;;;17.84;64.19;98901.25;4502377;31;20100;-87
2022/10/24 10:59:56;;;;;;;44.10;18.20;;;;;;;17.53;64.77;98894.06;4474736;31;20079;-85
2022/10/24 11:02:46;;;;;;;42.60;18.08;;;;;;;17.47;64.87;98884.75;4502187;31;20151;-84
2022/10/24 11:05:14;;;;;;;40.10;18.85;;;;;;;17.69;64.43;98884.72;4487689;31;20161;-80
2022/10/24 11:07:55;;;;;;;35.50;17.37;;;;;;;17.62;64.68;98883.50;4502043;31;20100;-83
2022/10/24 11:10:24;;;;;;;39.38;17.48;;;;;;;17.75;64.18;98888.69;4501877;31;20092;-87
2022/10/24 11:12:50;;;;;;;37.10;17.10;;;;;;;17.83;63.61;98890.72;4487705;31;20144;-93
2022/10/24 11:15:24;;;;;;;42.10;17.80;;;;;;;17.86;63.33;98893.13;4488107;31;20108;-87
2022/10/24 11:18:10;;;;;;;36.03;16.70;;;;;;;18.19;62.74;98875.28;4502080;31;20463;-93
2022/10/24 11:20:46;;;;;;;35.38;16.50;;;;;;;18.05;62.84;98882.63;4487831;31;20164;-93
2022/10/24 11:23:18;;;;;;;35.85;16.83;;;;;;;18.26;62.12;98884.47;4503930;31;20124;-93
2022/10/24 11:25:51;;;;;;;36.70;16.62;;;;;;;18.02;62.92;98885.56;4489643;31;20093;-90